Chaska, MN (55318)

2:22 AM CDT on April 27, 2015 (GMT -0500)
Hammers Haven | | Change Station
CLOSE
Current Station
Personal Weather Station
Location: Chaska, MN
Elevation: 935 ft
Nearby Weather Stations

Elev 935 ft 44.82 °N, 93.61 °W | Updated 58 seconds ago

Clear
Clear
42.0 °F
Feels Like 42 °F
N
0.0
Wind Variable Wind from ENE
Gusts 0.0 mph

Today
High -- | Low -- °F
--% Chance of Precip.
Yesterday
High -- | Low -- °F
Precip. -- in
6:10 AM 8:14 PM
Waxing Gibbous, 62% visible
Pressure 30.16 in
Visibility 10.0 miles
Clouds Clear
Windchill 42 °F
Dew Point 28 °F
Humidity 58%
Rainfall 0.00 in
Snow Depth Not available.
UV 0 out of 12
Pollen 9.20 out of 12
Air Quality Not available.
Flu Activity Local Activity
METAR KFCM 270653Z AUTO 06004KT 10SM CLR 08/M04 A3015 RMK AO2 SLP212 T00831044

More Conditions Fewer Conditions

Pressure 30.16 in
Visibility 10.0 miles
Clouds Clear
Windchill 42 °F
Dew Point 28 °F
Humidity 58%
Rainfall 0.00 in
Snow Depth Not available.
UV 0 out of 12
Pollen 9.20 out of 12
Air Quality Not available.
Flu Activity Local Activity
METAR KFCM 270653Z AUTO 06004KT 10SM CLR 08/M04 A3015 RMK AO2 SLP212 T00831044

More Conditions Fewer Conditions

10-Day Weather Forecast

Almanac

Astronomy

Apr. 27, 2015 Rise Set
Actual Time
Civil Twilight
Nautical Twilight
Astronomical Twilight
Moon
Length of Visible Light
Length of Day
Tomorrow will be .
, % of the Moon is Illuminated

Today's Extremes

State Highs State Lows

Community

WunderPhotos

Upload Photos

1,817,276 photos uploaded!

WunderBlogs® & News

Nearby

Air Quality

  Air Quality AQ Index Pollutant
Not available.

Snow Depth

Station Depth Elevation

Earthquake Activity

City Distance Mag. Time & Date
Minimum magnitude displayed is 2.5.

Coastal Water Temperatures

Place Temperature

Stations

Nearby Weather Stations

Station Location Temp. Windchill Dew Point Humidity Wind Precip. Elev Updated Type